createdAt,value
2022-10-09T00:01:13.665Z,86.80
2022-10-09T00:03:42.872Z,86.80
2022-10-09T00:06:11.903Z,86.80
2022-10-09T00:08:39.821Z,86.80
2022-10-09T00:11:12.993Z,86.70
2022-10-09T00:13:40.037Z,86.60
2022-10-09T00:16:09.486Z,86.40
2022-10-09T00:18:36.961Z,86.40
2022-10-09T00:21:04.724Z,86.70
2022-10-09T00:23:32.328Z,86.60
2022-10-09T00:26:01.226Z,86.50
2022-10-09T00:28:34.225Z,86.40
2022-10-09T00:31:09.587Z,86.30
2022-10-09T00:33:37.412Z,86.30
2022-10-09T00:36:06.573Z,86.10
2022-10-09T00:38:34.515Z,86.00
2022-10-09T00:41:02.105Z,86.00
2022-10-09T00:43:59.593Z,85.90
2022-10-09T00:46:46.563Z,85.80
2022-10-09T00:49:31.922Z,85.80
2022-10-09T00:52:02.956Z,85.60
2022-10-09T00:54:33.928Z,85.60
2022-10-09T00:57:01.236Z,85.50
2022-10-09T00:59:28.647Z,85.40
2022-10-09T01:01:55.845Z,85.30
2022-10-09T01:04:23.027Z,85.20
2022-10-09T01:07:08.486Z,85.10
2022-10-09T01:10:03.059Z,85.00
2022-10-09T01:13:01.747Z,85.00
2022-10-09T01:15:41.093Z,84.90
2022-10-09T01:18:38.459Z,84.70
2022-10-09T01:21:11.327Z,84.50
2022-10-09T01:24:00.178Z,84.50
2022-10-09T01:26:54.403Z,84.50
2022-10-09T01:29:24.295Z,84.40
2022-10-09T01:31:52.362Z,84.30
2022-10-09T01:34:20.927Z,84.20
2022-10-09T01:36:48.663Z,84.20
2022-10-09T01:39:22.488Z,84.00
2022-10-09T01:41:51.976Z,84.00
2022-10-09T01:44:23.847Z,84.20
2022-10-09T01:46:51.087Z,84.30
2022-10-09T01:49:26.703Z,84.20
2022-10-09T01:52:16.887Z,84.00
2022-10-09T01:54:57.639Z,84.10
2022-10-09T01:57:35.203Z,84.30
2022-10-09T02:00:07.356Z,84.20
2022-10-09T02:02:35.646Z,84.30
2022-10-09T02:05:03.691Z,84.20
2022-10-09T02:07:32.375Z,84.30
2022-10-09T02:10:01.507Z,84.20
2022-10-09T02:12:31.779Z,84.20
2022-10-09T02:14:58.816Z,84.30
2022-10-09T02:17:33.332Z,84.40
2022-10-09T02:20:07.736Z,85.00
2022-10-09T02:22:36.252Z,84.30
2022-10-09T02:25:06.216Z,84.20
2022-10-09T02:27:34.209Z,84.30
2022-10-09T02:30:01.557Z,84.20
2022-10-09T02:32:28.924Z,84.10
2022-10-09T02:34:56.308Z,84.00
2022-10-09T02:37:23.381Z,83.80
2022-10-09T02:39:50.520Z,83.70
2022-10-09T02:42:17.565Z,83.70
2022-10-09T02:44:44.701Z,83.90
2022-10-09T02:47:11.777Z,84.00
2022-10-09T02:49:38.828Z,84.10
2022-10-09T02:52:05.936Z,84.00
2022-10-09T02:54:33.045Z,84.00
2022-10-09T02:57:00.125Z,83.90
2022-10-09T02:59:27.204Z,84.40
2022-10-09T03:01:54.315Z,84.70
2022-10-09T03:04:21.482Z,84.60
2022-10-09T03:06:48.529Z,84.60
2022-10-09T03:09:15.577Z,84.50
2022-10-09T03:11:42.625Z,84.40
2022-10-09T03:14:09.737Z,84.10
2022-10-09T03:16:36.786Z,84.00
2022-10-09T03:19:03.898Z,83.80
2022-10-09T03:21:31.018Z,83.60
2022-10-09T03:23:58.109Z,83.50
2022-10-09T03:26:27.124Z,83.50
2022-10-09T03:28:55.396Z,83.30
2022-10-09T03:31:51.918Z,83.10
2022-10-09T03:34:11.930Z,82.90
2022-10-09T03:36:39.329Z,82.80
2022-10-09T03:39:06.386Z,82.80
2022-10-09T03:41:33.522Z,82.90
2022-10-09T03:44:00.790Z,82.80
2022-10-09T03:46:27.983Z,82.70
2022-10-09T03:48:55.259Z,82.70
2022-10-09T03:51:22.286Z,82.60
2022-10-09T03:53:49.759Z,82.60
2022-10-09T03:56:16.787Z,82.60
2022-10-09T03:58:43.823Z,82.50
2022-10-09T04:01:10.926Z,82.30
2022-10-09T04:03:38.032Z,82.20
2022-10-09T04:06:05.372Z,82.20
2022-10-09T04:08:32.407Z,82.20
2022-10-09T04:11:00.158Z,81.90
2022-10-09T04:13:27.439Z,81.90
2022-10-09T04:15:55.460Z,81.80
2022-10-09T04:18:23.355Z,81.80
2022-10-09T04:20:55.608Z,81.80
2022-10-09T04:23:25.443Z,81.80
2022-10-09T04:25:58.235Z,81.80
2022-10-09T04:28:27.022Z,82.20
2022-10-09T04:30:54.180Z,82.30
2022-10-09T04:33:21.231Z,82.30
2022-10-09T04:35:51.120Z,82.50
2022-10-09T04:38:18.579Z,82.50
2022-10-09T04:40:54.852Z,82.30
2022-10-09T04:43:21.905Z,82.30
2022-10-09T04:45:49.129Z,82.20
2022-10-09T04:48:16.948Z,82.80
2022-10-09T04:50:44.005Z,82.30
2022-10-09T04:53:11.157Z,82.20
2022-10-09T04:55:42.781Z,82.10
2022-10-09T04:58:11.581Z,81.90
2022-10-09T05:00:45.960Z,81.80
2022-10-09T05:03:13.737Z,81.80
2022-10-09T05:05:40.866Z,81.80
2022-10-09T05:08:07.993Z,81.80
2022-10-09T05:10:35.140Z,82.10
2022-10-09T05:13:02.301Z,82.30
2022-10-09T05:15:29.441Z,82.20
2022-10-09T05:17:56.546Z,82.10
2022-10-09T05:20:23.724Z,81.90
2022-10-09T05:22:51.033Z,81.90
2022-10-09T05:25:18.380Z,81.80
2022-10-09T05:27:45.405Z,81.60
2022-10-09T05:30:12.637Z,81.50
2022-10-09T05:32:39.682Z,81.30
2022-10-09T05:35:07.215Z,81.20
2022-10-09T05:37:34.241Z,81.00
2022-10-09T05:40:01.273Z,81.00
2022-10-09T05:42:28.341Z,80.80
2022-10-09T05:44:55.377Z,81.10
2022-10-09T05:47:22.426Z,80.90
2022-10-09T05:49:49.507Z,80.90
2022-10-09T05:52:16.534Z,81.00
2022-10-09T05:54:43.571Z,81.00
2022-10-09T05:57:10.610Z,81.00
2022-10-09T05:59:37.656Z,80.90
2022-10-09T06:02:04.812Z,80.90
2022-10-09T06:04:31.939Z,80.90
2022-10-09T06:06:59.046Z,80.90
2022-10-09T06:09:26.474Z,80.80
2022-10-09T06:11:55.006Z,80.70
2022-10-09T06:14:22.973Z,80.80
2022-10-09T06:16:50.599Z,80.80
2022-10-09T06:19:19.367Z,80.80
2022-10-09T06:21:47.602Z,80.60
2022-10-09T06:24:27.849Z,80.40
2022-10-09T06:26:55.908Z,80.40
2022-10-09T06:29:23.078Z,80.30
2022-10-09T06:31:50.122Z,80.20
2022-10-09T06:34:17.245Z,80.10
2022-10-09T06:36:44.354Z,80.10
2022-10-09T06:39:11.647Z,80.10
2022-10-09T06:41:39.064Z,80.10
2022-10-09T06:44:15.337Z,80.00
2022-10-09T06:46:45.070Z,79.90
2022-10-09T06:49:12.608Z,79.80
2022-10-09T06:51:40.891Z,79.70
2022-10-09T06:54:13.254Z,79.70
2022-10-09T06:56:40.673Z,79.60
2022-10-09T06:59:08.599Z,79.60
2022-10-09T07:01:35.683Z,79.70
2022-10-09T07:04:14.144Z,79.80
2022-10-09T07:06:44.091Z,79.80
2022-10-09T07:09:13.025Z,79.90
2022-10-09T07:11:43.180Z,80.60
2022-10-09T07:14:12.229Z,80.10
2022-10-09T07:16:42.893Z,80.20
2022-10-09T07:19:11.706Z,80.40
2022-10-09T07:21:41.143Z,80.30
2022-10-09T07:24:08.899Z,80.20
2022-10-09T07:26:38.197Z,80.20
2022-10-09T07:29:08.131Z,80.30
2022-10-09T07:31:35.360Z,80.30
2022-10-09T07:34:03.281Z,80.20
2022-10-09T07:36:30.368Z,79.90
2022-10-09T07:38:59.369Z,79.80
2022-10-09T07:41:28.561Z,79.70
2022-10-09T07:43:56.353Z,79.60
2022-10-09T07:46:26.878Z,79.40
2022-10-09T07:48:56.765Z,79.50
2022-10-09T07:51:26.344Z,79.60
2022-10-09T07:53:53.980Z,79.60
2022-10-09T07:56:26.676Z,79.60
2022-10-09T07:59:01.757Z,79.70
2022-10-09T08:01:30.691Z,79.70
2022-10-09T08:03:58.789Z,79.60
2022-10-09T08:06:26.226Z,79.70
2022-10-09T08:08:55.633Z,79.80
2022-10-09T08:11:24.737Z,79.90
2022-10-09T08:13:52.522Z,80.10
2022-10-09T08:16:20.789Z,80.10
2022-10-09T08:18:48.233Z,80.00
2022-10-09T08:21:18.205Z,79.80
2022-10-09T08:23:45.745Z,79.80
2022-10-09T08:26:15.481Z,79.40
2022-10-09T08:28:43.522Z,79.70
2022-10-09T08:31:12.468Z,80.10
2022-10-09T08:33:39.646Z,80.30
2022-10-09T08:36:08.506Z,80.50
2022-10-09T08:38:51.661Z,80.90
2022-10-09T08:41:40.174Z,81.00
2022-10-09T08:44:16.862Z,80.90
2022-10-09T08:46:59.207Z,81.00
2022-10-09T08:49:32.326Z,81.00
2022-10-09T08:52:10.994Z,81.20
2022-10-09T08:54:39.531Z,81.10
2022-10-09T08:57:13.465Z,81.30
2022-10-09T08:59:40.748Z,81.20
2022-10-09T09:02:31.192Z,81.30
2022-10-09T09:05:07.166Z,81.30
2022-10-09T09:07:53.848Z,81.30
2022-10-09T09:10:36.586Z,81.30
2022-10-09T09:13:20.886Z,81.30
2022-10-09T09:15:55.035Z,81.20
2022-10-09T09:18:31.039Z,81.10
2022-10-09T09:21:09.479Z,81.00
2022-10-09T09:23:40.804Z,80.90
2022-10-09T09:26:17.897Z,81.50
2022-10-09T09:28:47.082Z,80.90
2022-10-09T09:31:31.245Z,80.90
2022-10-09T09:34:28.067Z,80.80
2022-10-09T09:36:58.300Z,80.80
2022-10-09T09:42:19.735Z,81.10
2022-10-09T09:44:51.340Z,81.20
2022-10-09T09:47:34.879Z,81.20
2022-10-09T09:50:04.734Z,81.40
2022-10-09T09:52:39.791Z,81.30
2022-10-09T09:55:07.202Z,81.30
2022-10-09T09:57:43.312Z,81.30
2022-10-09T10:00:16.355Z,81.30
2022-10-09T10:02:43.392Z,81.40
2022-10-09T10:05:23.181Z,81.20
2022-10-09T10:07:51.548Z,81.20
2022-10-09T10:10:26.775Z,81.10
2022-10-09T10:12:59.248Z,81.10
2022-10-09T10:15:33.844Z,81.10
2022-10-09T10:18:03.120Z,81.00
2022-10-09T10:20:32.542Z,81.10
2022-10-09T10:23:00.794Z,81.00
2022-10-09T10:25:33.384Z,81.00
2022-10-09T10:28:24.553Z,81.00
2022-10-09T10:30:53.333Z,81.10
2022-10-09T10:33:26.829Z,81.00
2022-10-09T10:35:56.028Z,81.00
2022-10-09T10:38:26.732Z,81.00
2022-10-09T10:41:24.279Z,81.00
2022-10-09T10:44:18.837Z,81.20
2022-10-09T10:46:59.958Z,81.20
2022-10-09T10:49:31.671Z,81.20
2022-10-09T10:52:15.742Z,81.40
2022-10-09T10:54:53.844Z,81.60
2022-10-09T10:57:59.810Z,81.50
2022-10-09T11:00:28.369Z,81.50
2022-10-09T11:03:17.010Z,81.40
2022-10-09T11:05:53.661Z,81.40
2022-10-09T11:08:49.870Z,81.40
2022-10-09T11:11:37.790Z,81.40
2022-10-09T11:14:23.695Z,81.40
2022-10-09T11:17:03.266Z,81.60
2022-10-09T11:20:05.390Z,81.90
2022-10-09T11:22:44.150Z,81.90
2022-10-09T11:25:40.654Z,81.90
2022-10-09T11:28:11.585Z,81.90
2022-10-09T11:30:50.266Z,82.00
2022-10-09T11:33:20.095Z,82.00
2022-10-09T11:35:55.211Z,82.10
2022-10-09T11:38:29.586Z,82.10
2022-10-09T11:40:58.658Z,82.00
2022-10-09T11:43:25.670Z,81.90
2022-10-09T11:46:01.514Z,81.90
2022-10-09T11:48:51.362Z,81.80
2022-10-09T11:51:47.595Z,81.70
2022-10-09T11:54:18.406Z,81.70
2022-10-09T11:56:54.348Z,81.70
2022-10-09T11:59:30.673Z,81.70
2022-10-09T12:02:00.147Z,81.60
2022-10-09T12:04:50.536Z,81.50
2022-10-09T12:07:36.575Z,81.30
2022-10-09T12:10:08.695Z,81.30
2022-10-09T12:12:38.627Z,81.50
2022-10-09T12:15:25.979Z,81.10
2022-10-09T12:17:53.255Z,81.90
2022-10-09T12:20:26.483Z,79.30
2022-10-09T12:23:24.743Z,79.90
2022-10-09T12:25:46.004Z,78.90
2022-10-09T12:28:40.290Z,78.70
2022-10-09T12:31:19.852Z,78.70
2022-10-09T12:33:52.831Z,78.70
2022-10-09T12:36:25.667Z,78.60
2022-10-09T12:38:52.900Z,78.90
2022-10-09T12:41:24.913Z,78.40
2022-10-09T12:43:54.203Z,78.70
2022-10-09T12:46:36.445Z,78.60
2022-10-09T12:49:14.088Z,78.30
2022-10-09T12:51:41.209Z,78.20
2022-10-09T12:54:09.890Z,78.30
2022-10-09T12:56:38.610Z,78.20
2022-10-09T12:59:08.588Z,78.60
2022-10-09T13:01:35.970Z,78.40
2022-10-09T13:04:05.667Z,78.10
2022-10-09T13:06:52.021Z,78.00
2022-10-09T13:09:38.969Z,78.00
2022-10-09T13:12:26.853Z,78.10
2022-10-09T13:15:05.393Z,78.60
2022-10-09T13:17:41.315Z,78.70
2022-10-09T13:20:31.122Z,77.80
2022-10-09T13:23:03.978Z,77.30
2022-10-09T13:25:37.134Z,77.50
2022-10-09T13:28:04.694Z,77.70
2022-10-09T13:30:32.614Z,77.80
2022-10-09T13:32:59.713Z,77.70
2022-10-09T13:35:26.839Z,77.90
2022-10-09T13:37:53.914Z,77.70
2022-10-09T13:40:21.860Z,77.80
2022-10-09T13:42:57.603Z,77.70
2022-10-09T13:45:24.682Z,77.60
2022-10-09T13:47:52.371Z,77.90
2022-10-09T13:50:19.858Z,77.50
2022-10-09T13:52:47.055Z,77.30
2022-10-09T13:55:14.721Z,77.60
2022-10-09T13:57:41.857Z,78.00
2022-10-09T14:00:09.543Z,78.30
2022-10-09T14:02:36.769Z,78.60
2022-10-09T14:05:03.943Z,78.70
2022-10-09T14:07:31.014Z,79.90
2022-10-09T14:09:58.080Z,80.00
2022-10-09T14:12:25.190Z,80.10
2022-10-09T14:14:54.137Z,80.20
2022-10-09T14:17:21.218Z,78.40
2022-10-09T14:19:48.535Z,78.90
2022-10-09T14:22:15.806Z,78.40
2022-10-09T14:24:42.865Z,78.70
2022-10-09T14:27:10.543Z,79.40
2022-10-09T14:29:38.091Z,79.50
2022-10-09T14:32:05.942Z,79.50
2022-10-09T14:34:33.019Z,79.50
2022-10-09T14:37:00.097Z,79.50
2022-10-09T14:39:27.166Z,79.50
2022-10-09T14:41:54.251Z,79.40
2022-10-09T14:44:21.294Z,80.80
2022-10-09T14:46:48.460Z,80.20
2022-10-09T14:49:15.575Z,80.30
2022-10-09T14:51:42.699Z,80.00
2022-10-09T14:54:11.551Z,80.10
2022-10-09T14:56:39.183Z,79.90
2022-10-09T14:59:06.475Z,80.00
2022-10-09T15:01:34.802Z,79.90
2022-10-09T15:04:04.278Z,79.80
2022-10-09T15:06:32.075Z,79.80
2022-10-09T15:09:03.242Z,79.70
2022-10-09T15:11:34.048Z,79.80
2022-10-09T15:14:01.287Z,79.70
2022-10-09T15:16:28.351Z,79.50
2022-10-09T15:18:55.980Z,79.50
2022-10-09T15:21:25.903Z,79.50
2022-10-09T15:23:57.608Z,79.40
2022-10-09T15:26:26.423Z,79.30
2022-10-09T15:28:53.828Z,79.20
2022-10-09T15:31:23.420Z,79.20
2022-10-09T15:33:55.621Z,79.10
2022-10-09T15:36:24.029Z,78.90
2022-10-09T15:38:51.121Z,78.80
2022-10-09T15:41:21.259Z,78.90
2022-10-09T15:43:49.461Z,78.80
2022-10-09T15:46:17.266Z,78.70
2022-10-09T15:48:44.533Z,78.70
2022-10-09T15:51:13.596Z,78.70
2022-10-09T15:53:42.601Z,78.70
2022-10-09T15:56:12.795Z,78.70
2022-10-09T15:58:40.041Z,78.50
2022-10-09T16:01:10.425Z,78.40
2022-10-09T16:03:38.324Z,78.70
2022-10-09T16:06:08.030Z,78.70
2022-10-09T16:08:35.591Z,78.40
2022-10-09T16:13:42.865Z,78.70
2022-10-09T16:16:14.192Z,78.70
2022-10-09T16:18:41.222Z,78.60
2022-10-09T16:21:10.770Z,78.50
2022-10-09T16:23:38.051Z,78.60
2022-10-09T16:26:05.421Z,78.40
2022-10-09T16:28:33.425Z,78.60
2022-10-09T16:31:00.736Z,78.70
2022-10-09T16:33:28.227Z,78.60
2022-10-09T16:36:05.795Z,78.40
2022-10-09T16:38:32.891Z,78.50
2022-10-09T16:41:02.150Z,78.40
2022-10-09T16:43:32.559Z,78.40
2022-10-09T16:49:03.147Z,78.60
2022-10-09T16:51:33.186Z,78.60
2022-10-09T16:54:02.039Z,78.50
2022-10-09T16:56:33.044Z,78.50
2022-10-09T16:59:01.935Z,78.60
2022-10-09T17:01:29.526Z,79.00
2022-10-09T17:03:58.555Z,79.10
2022-10-09T17:06:26.672Z,79.40
2022-10-09T17:08:57.427Z,79.60
2022-10-09T17:11:26.035Z,79.60
2022-10-09T17:13:56.601Z,79.50
2022-10-09T17:16:27.857Z,79.70
2022-10-09T17:18:55.801Z,80.40
2022-10-09T17:21:23.447Z,80.50
2022-10-09T17:23:55.615Z,81.10
2022-10-09T17:26:24.105Z,81.30
2022-10-09T17:28:52.107Z,81.60
2022-10-09T17:31:21.776Z,81.80
2022-10-09T17:33:53.028Z,81.80
2022-10-09T17:36:21.727Z,82.00
2022-10-09T17:38:49.816Z,82.10
2022-10-09T17:41:18.732Z,82.30
2022-10-09T17:43:45.892Z,82.30
2022-10-09T17:46:16.948Z,82.50
2022-10-09T17:48:45.053Z,82.60
2022-10-09T17:51:18.136Z,82.50
2022-10-09T17:53:46.127Z,82.50
2022-10-09T17:56:13.385Z,82.70
2022-10-09T17:58:44.212Z,82.70
2022-10-09T18:01:11.851Z,82.70
2022-10-09T18:03:39.008Z,82.80
2022-10-09T18:06:08.747Z,82.70
2022-10-09T18:08:36.491Z,82.40
2022-10-09T18:11:07.901Z,82.30
2022-10-09T18:13:36.797Z,82.20
2022-10-09T18:16:09.489Z,82.20
2022-10-09T18:18:36.737Z,82.10
2022-10-09T18:21:06.677Z,82.10
2022-10-09T18:23:36.033Z,82.00
2022-10-09T18:26:13.065Z,81.90
2022-10-09T18:28:41.833Z,81.90
2022-10-09T18:31:13.305Z,81.90
2022-10-09T18:33:41.559Z,81.90
2022-10-09T18:36:13.903Z,81.80
2022-10-09T18:38:42.128Z,81.70
2022-10-09T18:41:09.489Z,81.70
2022-10-09T18:43:37.002Z,81.70
2022-10-09T18:46:04.313Z,81.70
2022-10-09T18:48:35.086Z,81.60
2022-10-09T18:51:03.437Z,81.50
2022-10-09T18:53:31.876Z,81.70
2022-10-09T18:55:59.330Z,81.60
2022-10-09T18:58:26.907Z,81.60
2022-10-09T19:00:54.010Z,81.60
2022-10-09T19:03:21.122Z,81.60
2022-10-09T19:05:48.199Z,81.60
2022-10-09T19:08:15.222Z,81.40
2022-10-09T19:10:42.366Z,81.30
2022-10-09T19:13:09.407Z,81.10
2022-10-09T19:15:36.478Z,81.00
2022-10-09T19:18:03.626Z,81.00
2022-10-09T19:20:31.375Z,80.80
2022-10-09T19:22:58.438Z,80.90
2022-10-09T19:25:25.499Z,80.80
2022-10-09T19:27:52.776Z,80.90
2022-10-09T19:30:19.943Z,80.80
2022-10-09T19:32:47.204Z,80.90
2022-10-09T19:35:15.002Z,80.90
2022-10-09T19:37:42.029Z,80.90
2022-10-09T19:40:09.357Z,80.80
2022-10-09T19:42:36.435Z,80.90
2022-10-09T19:45:04.475Z,80.80
2022-10-09T19:47:31.508Z,80.90
2022-10-09T19:49:59.495Z,80.70
2022-10-09T19:52:26.647Z,80.80
2022-10-09T19:54:54.107Z,80.70
2022-10-09T19:57:21.231Z,80.80
2022-10-09T19:59:48.532Z,80.70
2022-10-09T20:02:15.563Z,80.70
2022-10-09T20:04:42.606Z,80.60
2022-10-09T20:07:12.731Z,80.90
2022-10-09T20:09:40.267Z,81.00
2022-10-09T20:12:08.040Z,80.90
2022-10-09T20:14:35.104Z,80.90
2022-10-09T20:17:02.279Z,80.60
2022-10-09T20:19:31.381Z,80.60
2022-10-09T20:21:58.440Z,80.40
2022-10-09T20:24:25.501Z,80.30
2022-10-09T20:26:52.609Z,80.20
2022-10-09T20:29:19.652Z,80.00
2022-10-09T20:31:48.729Z,79.90
2022-10-09T20:34:16.784Z,79.80
2022-10-09T20:36:43.849Z,79.70
2022-10-09T20:39:12.837Z,79.50
2022-10-09T20:41:40.884Z,79.50
2022-10-09T20:44:08.060Z,79.60
2022-10-09T20:46:37.764Z,79.50
2022-10-09T20:49:07.800Z,79.60
2022-10-09T20:51:35.700Z,79.40
2022-10-09T20:54:03.445Z,80.00
2022-10-09T20:56:32.576Z,80.10
2022-10-09T20:59:00.421Z,80.00
2022-10-09T21:01:28.803Z,79.80
2022-10-09T21:03:57.431Z,79.80
2022-10-09T21:06:25.648Z,79.70
2022-10-09T21:08:52.805Z,79.60
2022-10-09T21:11:20.341Z,79.50
2022-10-09T21:13:48.119Z,79.40
2022-10-09T21:16:18.694Z,79.70
2022-10-09T21:18:46.197Z,79.70
2022-10-09T21:21:15.741Z,79.50
2022-10-09T21:23:44.005Z,79.40
2022-10-09T21:26:14.027Z,79.40
2022-10-09T21:28:41.401Z,79.40
2022-10-09T21:31:10.005Z,79.30
2022-10-09T21:33:37.245Z,79.30
2022-10-09T21:36:11.558Z,79.70
2022-10-09T21:38:38.827Z,79.00
2022-10-09T21:41:05.858Z,79.00
2022-10-09T21:43:32.938Z,78.90
2022-10-09T21:46:00.022Z,78.90
2022-10-09T21:48:27.090Z,79.00
2022-10-09T21:50:54.120Z,78.70
2022-10-09T21:53:21.238Z,78.60
2022-10-09T21:55:48.274Z,78.80
2022-10-09T21:58:15.306Z,78.60
2022-10-09T22:00:42.367Z,78.50
2022-10-09T22:03:09.473Z,78.40
2022-10-09T22:05:39.578Z,78.10
2022-10-09T22:08:06.618Z,78.10
2022-10-09T22:10:33.643Z,78.10
2022-10-09T22:13:00.686Z,78.10
2022-10-09T22:15:27.776Z,78.20
2022-10-09T22:17:54.827Z,77.90
2022-10-09T22:20:21.859Z,77.80
2022-10-09T22:22:49.150Z,78.10
2022-10-09T22:25:16.834Z,78.20
2022-10-09T22:27:43.883Z,78.30
2022-10-09T22:30:11.544Z,78.30
2022-10-09T22:32:38.596Z,78.30
2022-10-09T22:35:05.983Z,78.40
2022-10-09T22:37:33.024Z,78.70
2022-10-09T22:40:00.055Z,79.00
2022-10-09T22:42:27.179Z,79.20
2022-10-09T22:44:54.217Z,79.40
2022-10-09T22:47:21.263Z,79.50
2022-10-09T22:49:50.259Z,79.60
2022-10-09T22:52:17.297Z,79.50
2022-10-09T22:54:44.336Z,79.20
2022-10-09T22:57:11.424Z,79.40
2022-10-09T22:59:38.516Z,79.60
2022-10-09T23:02:05.747Z,79.70
2022-10-09T23:04:32.836Z,79.90
2022-10-09T23:06:59.981Z,79.80
2022-10-09T23:09:30.528Z,79.90
2022-10-09T23:11:59.140Z,79.90
2022-10-09T23:14:26.773Z,79.90
2022-10-09T23:16:55.629Z,79.90
2022-10-09T23:19:22.692Z,79.90
2022-10-09T23:21:49.738Z,79.90
2022-10-09T23:24:17.846Z,79.80
2022-10-09T23:26:46.332Z,79.70
2022-10-09T23:29:16.620Z,79.80
2022-10-09T23:31:44.118Z,79.70
2022-10-09T23:34:11.389Z,79.70
2022-10-09T23:36:38.448Z,79.70
2022-10-09T23:39:06.614Z,79.50
2022-10-09T23:41:34.033Z,79.30
2022-10-09T23:44:01.539Z,79.30
2022-10-09T23:46:31.559Z,79.30
2022-10-09T23:48:58.865Z,79.10
2022-10-09T23:51:26.644Z,79.00
2022-10-09T23:53:53.841Z,79.00
2022-10-09T23:56:23.628Z,79.00
2022-10-09T23:58:51.590Z,78.80
